< < Back
Terminal Aerodrome Forecast


Current Version              Previous Versions:   1  2  3  4  5  6  7  8  9  

Terminal Aerodrome Forecast

653
FTUS42 KFFC 191700
TAFPDK
TAF
KPDK 191720Z 1918/2018 04012G25KT P6SM OVC025
      TEMPO 1918/1922 5SM -DZ
     FM200200 04010KT P6SM OVC025
     FM201500 06010KT P6SM SCT030 BKN060=



Latest METAR

074
SAUS70 KWBC 201100 RRK
MTRPDK
METAR KPDK 201053Z 02003KT 10SM CLR 08/05 A3020 RMK AO2 SLP228
T00830050


USA.gov is the U.S. government's official web portal to all federal, state and local government web resources and services.